createdAt,value
2022-12-27T06:33:32.569Z,60.84
2022-12-27T06:34:32.456Z,63.48
2022-12-27T06:35:32.520Z,60.01
2022-12-27T06:36:32.401Z,61.89
2022-12-27T06:37:32.368Z,60.94
2022-12-27T06:38:32.476Z,63.31
2022-12-27T06:39:32.323Z,60.42
2022-12-27T06:40:32.325Z,62.61
2022-12-27T06:41:33.221Z,58.43
2022-12-27T06:42:41.477Z,64.88
2022-12-27T06:43:36.202Z,61.43
2022-12-27T06:44:32.312Z,60.82
2022-12-27T06:45:32.578Z,59.68
2022-12-27T06:46:32.271Z,58.24
2022-12-27T06:47:32.740Z,59.05
2022-12-27T06:48:34.287Z,61.33
2022-12-27T06:49:33.515Z,61.28
2022-12-27T06:50:33.951Z,60.16
2022-12-27T06:51:33.925Z,60.85
2022-12-27T06:52:33.597Z,61.78
2022-12-27T06:53:33.811Z,61.27
2022-12-27T06:54:33.779Z,60.00
2022-12-27T06:55:33.419Z,61.97
2022-12-27T06:56:33.465Z,58.56
2022-12-27T06:57:34.091Z,60.90
2022-12-27T06:58:33.554Z,58.55
2022-12-27T06:59:34.033Z,61.17
2022-12-27T07:00:33.531Z,61.50
2022-12-27T07:01:33.448Z,58.96
2022-12-27T07:02:33.574Z,59.35
2022-12-27T07:03:33.338Z,59.35
2022-12-27T07:04:33.410Z,60.10
2022-12-27T07:05:33.478Z,60.53
2022-12-27T07:06:33.390Z,61.29
2022-12-27T07:07:33.850Z,61.20
2022-12-27T07:08:33.417Z,61.03
2022-12-27T07:09:33.391Z,59.74
2022-12-27T07:10:33.264Z,62.69
2022-12-27T07:11:33.350Z,61.07
2022-12-27T07:12:36.640Z,59.08
2022-12-27T07:13:34.637Z,62.81
2022-12-27T07:14:33.260Z,59.71
2022-12-27T07:15:33.284Z,61.11
2022-12-27T07:16:33.350Z,59.01
2022-12-27T07:17:33.254Z,62.86
2022-12-27T07:18:33.479Z,58.25
2022-12-27T07:19:33.141Z,62.72
2022-12-27T07:20:33.584Z,60.69
2022-12-27T07:21:33.282Z,63.53
2022-12-27T07:22:33.371Z,61.23
2022-12-27T07:23:35.315Z,57.50
2022-12-27T07:24:33.183Z,61.29
2022-12-27T07:25:33.445Z,62.62
2022-12-27T07:26:33.281Z,62.26
2022-12-27T07:27:33.083Z,60.61
2022-12-27T07:28:33.183Z,60.10
2022-12-27T07:29:33.976Z,62.35
2022-12-27T07:30:33.242Z,62.16
2022-12-27T07:31:34.422Z,62.51
2022-12-27T07:32:34.124Z,64.22
2022-12-27T07:33:33.093Z,60.25
2022-12-27T07:34:33.060Z,57.00
2022-12-27T07:35:33.267Z,60.80
2022-12-27T07:36:33.588Z,63.09
2022-12-27T07:37:33.051Z,60.89
2022-12-27T07:38:33.128Z,63.01
2022-12-27T07:39:33.357Z,61.60
2022-12-27T07:40:33.218Z,62.28
2022-12-27T07:41:38.107Z,60.91
2022-12-27T07:42:33.512Z,62.51
2022-12-27T07:43:33.212Z,57.21
2022-12-27T07:44:32.947Z,62.54
2022-12-27T07:45:32.994Z,60.09
2022-12-27T07:46:33.049Z,63.52
2022-12-27T07:47:32.866Z,61.39
2022-12-27T07:48:33.069Z,59.58
2022-12-27T07:49:32.877Z,60.70
2022-12-27T07:50:32.880Z,61.99
2022-12-27T07:51:32.876Z,63.01
2022-12-27T07:52:32.851Z,64.89
2022-12-27T07:53:32.905Z,64.41
2022-12-27T07:54:32.856Z,61.33
2022-12-27T07:55:32.996Z,60.45
2022-12-27T07:56:33.263Z,62.76
2022-12-27T07:57:33.432Z,63.76
2022-12-27T07:58:33.422Z,62.16
2022-12-27T07:59:32.772Z,62.48
2022-12-27T08:00:32.803Z,62.91
2022-12-27T08:01:33.034Z,61.52
2022-12-27T08:02:32.830Z,61.44
2022-12-27T08:03:32.826Z,63.39
2022-12-27T08:04:33.082Z,63.53
2022-12-27T08:05:32.778Z,60.30
2022-12-27T08:06:32.746Z,62.14
2022-12-27T08:07:32.995Z,62.94
2022-12-27T08:08:32.843Z,63.71
2022-12-27T08:09:32.911Z,61.44
2022-12-27T08:10:35.114Z,60.16
2022-12-27T08:20:29.677Z,62.69
2022-12-27T08:21:29.401Z,58.50
2022-12-27T08:22:29.310Z,63.74
2022-12-27T08:23:30.941Z,60.47
2022-12-27T08:24:29.339Z,62.27
2022-12-27T08:25:29.392Z,61.67
2022-12-27T08:26:29.435Z,61.72
2022-12-27T08:27:29.337Z,62.70
2022-12-27T08:28:29.320Z,64.58
2022-12-27T08:29:31.151Z,61.65
2022-12-27T08:30:29.714Z,60.96
2022-12-27T08:31:29.405Z,65.33
2022-12-27T08:32:29.210Z,62.59
2022-12-27T08:33:29.369Z,62.04
2022-12-27T08:34:29.462Z,63.06
2022-12-27T08:35:54.047Z,62.58
2022-12-27T08:36:57.048Z,60.75
2022-12-27T08:53:21.659Z,64.32
2022-12-27T08:54:20.212Z,62.77
2022-12-27T09:00:03.000Z,64.71
2022-12-27T09:01:01.953Z,62.76
2022-12-27T09:02:01.673Z,62.53
2022-12-27T09:03:01.718Z,61.84
2022-12-27T09:04:01.299Z,58.68
2022-12-27T09:05:01.263Z,61.83
2022-12-27T09:06:01.626Z,59.61
2022-12-27T09:07:01.340Z,63.17
2022-12-27T09:08:01.475Z,62.13
2022-12-27T09:09:01.722Z,62.11
2022-12-27T09:10:03.542Z,62.52
2022-12-27T09:11:01.556Z,60.66
2022-12-27T09:12:34.208Z,61.37
2022-12-27T09:13:01.423Z,63.97
2022-12-27T09:14:01.541Z,62.66
2022-12-27T09:18:26.839Z,62.70
2022-12-27T09:19:22.083Z,61.75
2022-12-27T09:20:19.738Z,61.59
2022-12-27T09:21:19.084Z,62.92
2022-12-27T09:22:20.916Z,61.24
2022-12-27T09:26:41.928Z,63.29
2022-12-27T09:27:41.403Z,63.00
2022-12-27T09:28:43.101Z,63.28
2022-12-27T09:29:48.112Z,62.94
2022-12-27T09:31:14.805Z,61.80
2022-12-27T09:31:42.790Z,60.09
2022-12-27T09:35:59.086Z,62.20
2022-12-27T09:36:58.970Z,63.52
2022-12-27T09:37:58.888Z,62.80
2022-12-27T09:38:58.706Z,64.88
2022-12-27T09:39:58.835Z,62.84
2022-12-27T09:40:58.659Z,60.57
2022-12-27T09:43:16.370Z,64.79
2022-12-27T09:47:38.585Z,63.28
2022-12-27T09:48:38.562Z,60.48
2022-12-27T09:49:38.522Z,62.36
2022-12-27T09:50:38.513Z,64.32
2022-12-27T09:51:38.264Z,63.14
2022-12-27T09:52:39.658Z,62.72
2022-12-27T09:53:46.332Z,61.79
2022-12-27T09:54:42.553Z,62.20
2022-12-27T09:55:39.499Z,60.97
2022-12-27T09:57:09.572Z,63.27
2022-12-27T09:57:47.842Z,64.62
2022-12-27T09:58:40.264Z,62.17
2022-12-27T09:59:39.468Z,62.74
2022-12-27T10:00:44.282Z,62.64
2022-12-27T10:01:41.031Z,62.67
2022-12-27T10:07:41.166Z,62.74
2022-12-27T10:08:41.073Z,62.29
2022-12-27T10:09:41.305Z,62.13
2022-12-27T10:10:41.086Z,61.47
2022-12-27T10:11:42.189Z,63.75
2022-12-27T10:12:42.169Z,61.49
2022-12-27T10:13:42.124Z,63.76
2022-12-27T10:14:42.166Z,63.44
2022-12-27T10:15:42.296Z,65.37
2022-12-27T10:16:42.690Z,63.21
2022-12-27T10:17:42.137Z,63.02
2022-12-27T10:18:42.069Z,61.83
2022-12-27T10:19:42.166Z,64.14
2022-12-27T10:20:42.122Z,62.25
2022-12-27T10:21:42.066Z,62.18
2022-12-27T10:22:42.096Z,63.68
2022-12-27T10:23:42.077Z,61.92
2022-12-27T10:24:42.168Z,64.13
2022-12-27T10:25:42.075Z,63.67
2022-12-27T10:26:42.043Z,62.72
2022-12-27T10:27:42.019Z,62.32
2022-12-27T10:28:42.032Z,62.81
2022-12-27T10:29:42.038Z,62.90
2022-12-27T10:30:42.006Z,62.79
2022-12-27T10:31:41.985Z,60.74
2022-12-27T10:32:41.978Z,63.00
2022-12-27T10:33:41.920Z,64.30
2022-12-27T10:34:41.967Z,62.25
2022-12-27T10:35:41.894Z,62.77
2022-12-27T10:36:41.945Z,62.81
2022-12-27T10:37:41.982Z,62.81
2022-12-27T10:38:41.932Z,63.78
2022-12-27T10:39:41.960Z,63.62
2022-12-27T10:40:41.891Z,65.27
2022-12-27T10:41:41.889Z,64.36
2022-12-27T10:42:42.000Z,64.08
2022-12-27T10:43:41.836Z,62.99
2022-12-27T10:44:41.856Z,60.99
2022-12-27T10:45:41.797Z,64.92
2022-12-27T10:46:41.902Z,65.31
2022-12-27T10:47:41.827Z,64.14
2022-12-27T10:49:11.420Z,63.97
2022-12-27T10:49:43.804Z,66.61
2022-12-27T10:57:47.181Z,63.53
2022-12-27T10:58:49.261Z,64.43
2022-12-27T10:59:49.190Z,61.48
2022-12-27T11:00:48.302Z,64.47
2022-12-27T11:01:48.413Z,62.36
2022-12-27T11:02:48.346Z,63.41
2022-12-27T11:03:48.198Z,61.11
2022-12-27T11:04:48.149Z,65.17
2022-12-27T11:05:48.118Z,65.27
2022-12-27T11:06:48.136Z,64.61
2022-12-27T11:07:48.125Z,63.12
2022-12-27T11:08:48.099Z,63.44
2022-12-27T11:09:51.021Z,64.45
2022-12-27T11:10:49.103Z,63.74
2022-12-27T11:11:48.072Z,63.16
2022-12-27T11:12:48.079Z,64.11
2022-12-27T11:13:48.091Z,65.60
2022-12-27T11:14:48.046Z,62.03
2022-12-27T11:15:48.058Z,63.13
2022-12-27T11:16:48.111Z,66.34
2022-12-27T11:17:48.001Z,65.13
2022-12-27T11:18:49.066Z,63.70
2022-12-27T11:19:48.046Z,64.44
2022-12-27T11:20:47.966Z,63.23
2022-12-27T11:21:47.964Z,64.38
2022-12-27T11:22:47.952Z,63.66
2022-12-27T11:23:48.033Z,62.80
2022-12-27T11:24:48.008Z,65.30
2022-12-27T11:25:47.942Z,62.67
2022-12-27T11:26:53.540Z,64.22
2022-12-27T11:27:49.938Z,66.16
2022-12-27T11:28:47.924Z,63.51
2022-12-27T11:29:47.938Z,62.06
2022-12-27T11:30:47.926Z,63.36
2022-12-27T11:31:47.915Z,63.07
2022-12-27T11:32:47.897Z,64.15
2022-12-27T11:33:47.870Z,63.71
2022-12-27T11:34:47.846Z,63.39
2022-12-27T11:35:47.847Z,65.21
2022-12-27T11:36:47.851Z,64.61
2022-12-27T11:37:47.851Z,63.83
2022-12-27T11:38:47.795Z,62.41
2022-12-27T11:39:47.841Z,64.11
2022-12-27T11:40:47.797Z,63.39
2022-12-27T11:41:47.785Z,64.28
2022-12-27T11:42:47.799Z,62.97
2022-12-27T11:43:47.821Z,64.52
2022-12-27T11:44:47.772Z,61.12
2022-12-27T11:45:47.830Z,65.32
2022-12-27T11:46:47.822Z,63.13
2022-12-27T11:47:47.723Z,61.67
2022-12-27T11:48:47.712Z,62.44
2022-12-27T11:49:47.728Z,62.38
2022-12-27T11:50:47.692Z,63.87
2022-12-27T11:51:47.676Z,64.14
2022-12-27T11:52:47.651Z,63.46
2022-12-27T11:53:50.931Z,64.82
2022-12-27T11:54:49.649Z,64.19
2022-12-27T11:55:48.758Z,64.85
2022-12-27T11:56:47.648Z,65.00
2022-12-27T11:57:47.649Z,63.72
2022-12-27T11:58:47.720Z,62.09
2022-12-27T11:59:47.587Z,64.12
2022-12-27T12:00:47.642Z,64.63
2022-12-27T12:01:47.712Z,64.04
2022-12-27T12:02:47.725Z,64.49
2022-12-27T12:03:47.632Z,65.14
2022-12-27T12:04:47.575Z,63.57
2022-12-27T12:05:47.557Z,62.92
2022-12-27T12:06:47.528Z,63.96
2022-12-27T12:07:47.579Z,63.38
2022-12-27T12:08:47.513Z,64.32
2022-12-27T12:09:47.521Z,63.75
2022-12-27T12:10:47.518Z,65.81
2022-12-27T12:11:52.948Z,63.15
2022-12-27T12:12:49.445Z,62.63
2022-12-27T12:13:48.477Z,61.29
2022-12-27T12:14:47.423Z,62.94
2022-12-27T12:15:47.493Z,63.33
2022-12-27T12:16:47.458Z,63.28
2022-12-27T12:17:47.477Z,63.85
2022-12-27T12:18:47.392Z,64.50
2022-12-27T12:19:47.413Z,63.27
2022-12-27T12:20:51.004Z,63.48
2022-12-27T12:21:48.479Z,64.83
2022-12-27T12:22:47.362Z,63.24
2022-12-27T12:23:47.379Z,62.49
2022-12-27T12:24:47.377Z,63.92
2022-12-27T12:25:47.361Z,64.32
2022-12-27T12:27:19.821Z,63.73
2022-12-27T12:27:47.341Z,65.16
2022-12-27T12:28:58.088Z,63.17
2022-12-27T12:29:49.355Z,62.35
2022-12-27T12:30:47.358Z,61.62
2022-12-27T12:35:02.136Z,62.28
2022-12-27T12:36:03.606Z,62.88
2022-12-27T12:37:03.375Z,62.96
2022-12-27T12:38:03.327Z,65.08
2022-12-27T12:39:03.328Z,62.44
2022-12-27T12:40:03.282Z,61.27
2022-12-27T12:41:03.262Z,63.93
2022-12-27T12:42:03.294Z,65.67
2022-12-27T12:43:03.229Z,64.27
2022-12-27T12:44:03.243Z,66.96
2022-12-27T12:45:03.352Z,64.39
2022-12-27T12:46:03.245Z,64.70
2022-12-27T12:47:03.217Z,63.52
2022-12-27T12:48:03.185Z,64.15
2022-12-27T12:49:03.192Z,65.15
2022-12-27T12:50:07.860Z,62.83
2022-12-27T12:51:04.194Z,63.51
2022-12-27T12:52:03.131Z,64.46
2022-12-27T12:53:03.164Z,63.94
2022-12-27T12:54:03.136Z,64.80
2022-12-27T12:55:03.144Z,66.17
2022-12-27T12:56:03.118Z,62.86
2022-12-27T12:57:03.130Z,65.01
2022-12-27T12:58:03.091Z,65.13
2022-12-27T12:59:03.122Z,66.89
2022-12-27T13:00:03.034Z,65.28
2022-12-27T13:01:03.057Z,64.19
2022-12-27T13:02:03.302Z,64.33
2022-12-27T13:03:03.155Z,64.66
2022-12-27T13:04:03.032Z,65.01
2022-12-27T13:05:03.030Z,63.99
2022-12-27T13:06:03.009Z,64.16
2022-12-27T13:07:03.009Z,65.43
2022-12-27T13:08:02.987Z,64.46
2022-12-27T13:09:02.975Z,64.56
2022-12-27T13:10:02.941Z,65.21
2022-12-27T13:11:03.201Z,63.07
2022-12-27T13:12:02.932Z,63.28
2022-12-27T13:13:02.937Z,64.20
2022-12-27T13:14:02.905Z,63.81
2022-12-27T13:15:02.874Z,64.17
2022-12-27T13:16:02.949Z,64.07
2022-12-27T13:17:02.958Z,65.36
2022-12-27T13:18:02.881Z,65.89
2022-12-27T13:19:02.861Z,65.56
2022-12-27T13:20:02.885Z,64.66
2022-12-27T13:21:02.849Z,65.19
2022-12-27T13:22:02.820Z,63.90
2022-12-27T13:23:02.842Z,63.06
2022-12-27T13:24:02.795Z,65.27
2022-12-27T13:25:02.782Z,64.80
2022-12-27T13:26:02.833Z,63.94
2022-12-27T13:27:02.771Z,64.87
2022-12-27T13:28:02.773Z,62.48
2022-12-27T13:29:02.830Z,64.75
2022-12-27T13:30:06.763Z,64.00
2022-12-27T13:31:03.957Z,63.23
2022-12-27T13:32:02.787Z,63.87
2022-12-27T13:33:02.709Z,65.11
2022-12-27T13:34:02.761Z,63.81
2022-12-27T13:35:02.817Z,63.04
2022-12-27T13:36:02.751Z,66.27
2022-12-27T13:37:02.726Z,65.37
2022-12-27T13:38:02.673Z,65.68
2022-12-27T13:39:02.689Z,64.04
2022-12-27T13:40:02.668Z,62.92
2022-12-27T13:41:02.613Z,64.44
2022-12-27T13:42:02.700Z,65.90
2022-12-27T13:43:02.653Z,64.27
2022-12-27T13:44:02.593Z,66.08
2022-12-27T13:45:02.729Z,64.15
2022-12-27T13:46:02.638Z,63.75
2022-12-27T13:47:02.651Z,65.55
2022-12-27T13:48:02.577Z,66.97
2022-12-27T13:49:02.558Z,65.40
2022-12-27T13:50:02.535Z,64.59
2022-12-27T13:51:02.587Z,65.03
2022-12-27T13:52:02.556Z,65.80
2022-12-27T13:53:02.494Z,63.81
2022-12-27T13:54:02.537Z,66.86
2022-12-27T13:55:02.522Z,66.34
2022-12-27T13:56:20.424Z,65.95
2022-12-27T13:57:04.532Z,63.28
2022-12-27T13:58:02.513Z,65.24
2022-12-27T13:59:02.456Z,62.22
2022-12-27T14:00:02.498Z,64.53
2022-12-27T14:01:02.471Z,62.29
2022-12-27T14:02:02.606Z,64.73
2022-12-27T14:03:02.432Z,62.64
2022-12-27T14:04:02.449Z,64.26
2022-12-27T14:05:02.449Z,63.02
2022-12-27T14:06:02.411Z,62.96
2022-12-27T14:07:02.419Z,63.26
2022-12-27T14:08:02.373Z,63.41
2022-12-27T14:09:02.365Z,61.73
2022-12-27T14:10:02.373Z,63.14
2022-12-27T14:11:02.314Z,63.65
2022-12-27T14:12:03.874Z,63.12
2022-12-27T14:13:02.325Z,62.22
2022-12-27T14:14:02.326Z,63.87
2022-12-27T14:15:02.377Z,63.52
2022-12-27T14:16:02.313Z,62.19
2022-12-27T14:17:02.301Z,63.65
2022-12-27T14:18:02.314Z,62.46
2022-12-27T14:19:02.285Z,63.30
2022-12-27T14:20:02.275Z,62.91
2022-12-27T14:21:02.264Z,62.76
2022-12-27T14:22:02.251Z,62.33
2022-12-27T14:23:02.250Z,62.37
2022-12-27T14:24:02.221Z,63.10
2022-12-27T14:25:02.193Z,63.47
2022-12-27T14:26:02.237Z,62.68
2022-12-27T14:27:02.193Z,63.01
2022-12-27T14:28:02.184Z,61.91
2022-12-27T14:29:02.170Z,63.84
2022-12-27T14:30:02.181Z,63.76
2022-12-27T14:31:02.196Z,63.73
2022-12-27T14:32:02.127Z,64.96
2022-12-27T14:33:02.145Z,60.50
2022-12-27T14:34:02.163Z,62.58
2022-12-27T14:35:02.094Z,60.51
2022-12-27T14:36:02.105Z,63.03
2022-12-27T14:37:02.150Z,63.78
2022-12-27T14:38:02.072Z,61.79
2022-12-27T14:39:02.086Z,62.69
2022-12-27T14:40:02.088Z,64.07
2022-12-27T14:41:02.042Z,62.93
2022-12-27T14:42:02.046Z,63.20
2022-12-27T14:43:02.027Z,62.54
2022-12-27T14:44:02.000Z,61.93
2022-12-27T14:45:02.004Z,64.25
2022-12-27T14:46:02.046Z,61.61
2022-12-27T14:47:02.001Z,63.49
2022-12-27T14:48:01.995Z,62.39
2022-12-27T14:49:01.948Z,61.99
2022-12-27T14:50:01.947Z,61.15
2022-12-27T14:51:01.943Z,60.89
2022-12-27T14:52:06.125Z,60.47
2022-12-27T14:53:03.907Z,64.33
2022-12-27T14:54:01.917Z,63.31
2022-12-27T14:55:01.889Z,64.92
2022-12-27T14:56:01.921Z,62.18
2022-12-27T14:57:01.910Z,62.28
2022-12-27T14:58:02.806Z,62.64
2022-12-27T14:59:01.841Z,63.70
2022-12-27T15:00:01.832Z,63.52
2022-12-27T15:01:01.835Z,64.48
2022-12-27T15:02:01.975Z,63.86
2022-12-27T15:03:02.003Z,65.20
2022-12-27T15:04:01.853Z,63.76
2022-12-27T15:05:01.763Z,63.23
2022-12-27T15:06:01.836Z,65.47
2022-12-27T15:07:01.819Z,64.75
2022-12-27T15:08:01.744Z,64.45
2022-12-27T15:09:06.981Z,62.28
2022-12-27T15:10:03.859Z,62.04
2022-12-27T15:11:01.731Z,63.08
2022-12-27T15:12:01.727Z,62.54
2022-12-27T15:13:01.732Z,61.49
2022-12-27T15:14:01.719Z,62.07
2022-12-27T15:15:01.690Z,64.57
2022-12-27T15:16:01.770Z,63.14
2022-12-27T15:17:01.677Z,63.98
2022-12-27T15:18:01.666Z,62.04
2022-12-27T15:19:01.654Z,61.44
2022-12-27T15:20:01.681Z,62.65
2022-12-27T15:21:01.627Z,60.32
2022-12-27T15:22:01.643Z,62.81
2022-12-27T15:23:01.660Z,63.17
2022-12-27T15:24:01.647Z,64.67
2022-12-27T15:25:02.344Z,58.88
2022-12-27T15:26:01.625Z,61.89
2022-12-27T15:27:01.577Z,62.97
2022-12-27T15:28:01.524Z,62.59
2022-12-27T15:29:01.578Z,64.01
2022-12-27T15:30:01.595Z,61.48
2022-12-27T15:31:01.627Z,60.68
2022-12-27T15:32:01.527Z,62.95
2022-12-27T15:33:01.508Z,62.74
2022-12-27T15:34:01.504Z,60.32
2022-12-27T15:35:01.497Z,60.43
2022-12-27T15:36:01.473Z,62.47
2022-12-27T15:37:01.502Z,63.20
2022-12-27T15:38:01.465Z,63.07
2022-12-27T15:39:01.423Z,64.43
2022-12-27T15:40:01.598Z,61.47
2022-12-27T15:41:01.491Z,61.93
2022-12-27T15:42:01.437Z,61.29
2022-12-27T15:43:01.385Z,61.32
2022-12-27T15:44:01.423Z,63.84
2022-12-27T15:45:01.462Z,62.95
2022-12-27T15:46:01.435Z,65.05
2022-12-27T15:47:01.466Z,61.29
2022-12-27T15:48:01.338Z,62.76
2022-12-27T15:49:01.374Z,62.15
2022-12-27T15:50:01.386Z,62.90
2022-12-27T15:51:01.342Z,62.39
2022-12-27T15:52:01.350Z,62.83
2022-12-27T15:53:01.327Z,62.59
2022-12-27T15:54:01.323Z,64.13
2022-12-27T15:55:01.332Z,64.23
2022-12-27T15:56:01.280Z,60.52
2022-12-27T15:57:01.288Z,61.10
2022-12-27T15:58:01.297Z,63.42
2022-12-27T15:59:01.302Z,62.66
2022-12-27T16:00:01.364Z,61.88
2022-12-27T16:01:01.242Z,61.80
2022-12-27T16:02:01.328Z,63.51
2022-12-27T16:03:01.379Z,63.80
2022-12-27T16:07:04.153Z,61.77
2022-12-27T16:08:00.843Z,63.36
2022-12-27T16:09:35.593Z,63.16
2022-12-27T16:10:01.988Z,61.90
2022-12-27T16:11:34.444Z,61.49
2022-12-27T16:12:02.664Z,62.18
2022-12-27T16:13:02.223Z,62.83
2022-12-27T16:14:01.983Z,62.71
2022-12-27T16:15:01.985Z,61.97
2022-12-27T16:16:01.716Z,62.03
2022-12-27T16:17:02.033Z,61.39
2022-12-27T16:18:01.847Z,60.54
2022-12-27T16:19:01.825Z,61.56
2022-12-27T16:20:01.915Z,61.00
2022-12-27T16:21:01.850Z,61.67
2022-12-27T16:22:01.691Z,61.60
2022-12-27T16:23:02.270Z,61.65
2022-12-27T16:24:01.660Z,60.35
2022-12-27T16:28:13.902Z,60.03
2022-12-27T16:29:13.767Z,59.50
2022-12-27T16:30:13.815Z,60.45
2022-12-27T16:31:13.708Z,61.61
2022-12-27T16:32:14.871Z,61.38
2022-12-27T16:33:14.851Z,61.87
2022-12-27T16:34:14.785Z,62.62
2022-12-27T16:35:14.777Z,61.35
2022-12-27T16:36:14.797Z,62.98
2022-12-27T16:37:14.912Z,63.56
2022-12-27T16:38:14.781Z,59.88
2022-12-27T16:39:14.790Z,61.41
2022-12-27T16:40:14.737Z,61.87
2022-12-27T16:41:14.898Z,62.11
2022-12-27T16:42:14.794Z,61.17
2022-12-27T16:43:14.847Z,58.06
2022-12-27T16:44:14.698Z,61.69
2022-12-27T16:45:14.714Z,60.15
2022-12-27T16:46:14.718Z,62.84
2022-12-27T16:47:14.691Z,58.05
2022-12-27T16:48:14.785Z,64.01
2022-12-27T16:49:14.982Z,61.00
2022-12-27T16:50:14.913Z,61.82
2022-12-27T16:51:14.633Z,63.01
2022-12-27T16:52:14.760Z,59.43
2022-12-27T16:53:15.079Z,60.10
2022-12-27T16:54:14.761Z,59.17
2022-12-27T16:55:14.594Z,59.09
2022-12-27T16:56:14.738Z,62.85
2022-12-27T16:57:18.523Z,57.20
2022-12-27T16:58:16.731Z,59.45
2022-12-27T16:59:14.552Z,61.23
2022-12-27T17:00:14.755Z,61.21
2022-12-27T17:01:14.742Z,56.94
2022-12-27T17:02:14.604Z,57.72
2022-12-27T17:03:20.441Z,53.89
2022-12-27T17:04:15.567Z,59.20
2022-12-27T17:05:14.519Z,61.27
2022-12-27T17:06:31.730Z,63.47
2022-12-27T17:07:16.780Z,63.76
2022-12-27T17:08:14.808Z,63.74
2022-12-27T17:09:14.462Z,62.51
2022-12-27T17:10:14.926Z,59.52
2022-12-27T17:11:14.519Z,61.60
2022-12-27T17:12:14.557Z,60.19
2022-12-27T17:13:49.760Z,57.07
2022-12-27T17:14:14.622Z,60.99
2022-12-27T17:15:14.685Z,56.96
2022-12-27T17:16:14.506Z,59.30
2022-12-27T17:20:56.322Z,59.70
2022-12-27T17:21:56.198Z,58.62
2022-12-27T17:22:56.338Z,60.20
2022-12-27T17:23:56.134Z,60.62
2022-12-27T17:24:56.085Z,61.42
2022-12-27T17:25:56.281Z,60.56
2022-12-27T17:26:56.271Z,60.95
2022-12-27T17:27:56.233Z,60.52
2022-12-27T17:28:56.079Z,60.93
2022-12-27T17:29:56.303Z,61.64
2022-12-27T17:30:56.070Z,63.28
2022-12-27T17:31:56.079Z,61.96
2022-12-27T17:32:56.052Z,60.42
2022-12-27T17:33:57.460Z,60.10
2022-12-27T17:34:57.195Z,58.31
2022-12-27T17:35:57.207Z,57.12
2022-12-27T17:36:57.433Z,61.21
2022-12-27T17:37:57.704Z,61.25
2022-12-27T17:38:57.158Z,59.60
2022-12-27T17:39:57.226Z,62.31
2022-12-27T17:40:57.465Z,59.43
2022-12-27T17:41:57.366Z,60.85
2022-12-27T17:42:57.235Z,60.50
2022-12-27T17:44:29.666Z,60.15
2022-12-27T17:44:57.368Z,61.84
2022-12-27T17:45:57.620Z,61.46
2022-12-27T17:50:19.994Z,59.75
2022-12-27T17:56:28.726Z,57.56
2022-12-27T17:56:56.305Z,58.83
2022-12-27T17:57:56.285Z,60.73
2022-12-27T17:58:59.797Z,58.69
2022-12-27T17:59:57.644Z,57.75
2022-12-27T18:00:56.090Z,58.18
2022-12-27T18:01:56.039Z,55.90
2022-12-27T18:02:56.263Z,62.82
2022-12-27T18:03:56.049Z,60.11
2022-12-27T18:04:56.172Z,62.61
2022-12-27T18:05:56.124Z,60.29
2022-12-27T18:06:56.083Z,57.52
2022-12-27T18:07:56.120Z,57.66
2022-12-27T18:08:55.999Z,59.21
2022-12-27T18:09:56.008Z,58.09
2022-12-27T18:10:56.085Z,61.18
2022-12-27T18:11:55.939Z,58.51
2022-12-27T18:12:55.865Z,61.78
2022-12-27T18:13:55.890Z,59.40
2022-12-27T18:14:55.915Z,61.22
2022-12-27T18:15:56.170Z,59.86
2022-12-27T18:17:29.302Z,58.13
2022-12-27T18:17:56.133Z,61.56
2022-12-27T18:19:30.917Z,58.24
2022-12-27T18:20:23.092Z,59.24
2022-12-27T18:20:56.148Z,59.64
2022-12-27T18:25:04.863Z,57.23
2022-12-27T18:26:09.238Z,57.86
2022-12-27T18:27:12.406Z,57.80
2022-12-27T18:28:14.208Z,57.37
2022-12-27T18:32:11.833Z,62.52
2022-12-27T18:39:40.635Z,59.87
2022-12-27T18:40:40.838Z,56.84
2022-12-27T18:41:40.219Z,56.79
2022-12-27T18:42:40.145Z,59.49
2022-12-27T18:43:40.145Z,58.75
2022-12-27T18:44:40.235Z,59.99
2022-12-27T18:45:47.908Z,59.14
2022-12-27T18:46:40.278Z,60.62
2022-12-27T18:47:40.200Z,57.93
2022-12-27T18:48:40.198Z,59.38
2022-12-27T18:49:41.401Z,57.77
2022-12-27T18:50:41.252Z,60.74
2022-12-27T18:51:41.286Z,57.10
2022-12-27T18:52:41.299Z,57.60
2022-12-27T18:53:41.247Z,58.83
2022-12-27T18:54:41.582Z,59.93
2022-12-27T18:55:41.220Z,57.85
2022-12-27T18:56:41.264Z,59.88
2022-12-27T18:57:41.222Z,61.70
2022-12-27T18:58:41.265Z,60.45
2022-12-27T18:59:41.160Z,55.90
2022-12-27T19:00:41.432Z,59.42
2022-12-27T19:01:42.385Z,59.35
2022-12-27T19:02:41.299Z,57.13
2022-12-27T19:03:41.784Z,62.01
2022-12-27T19:04:41.134Z,59.57
2022-12-27T19:05:41.147Z,55.94
2022-12-27T19:06:41.115Z,56.66
2022-12-27T19:07:41.122Z,56.40
2022-12-27T19:08:41.236Z,58.04
2022-12-27T19:09:41.046Z,57.58
2022-12-27T19:10:41.094Z,57.52
2022-12-27T19:11:43.209Z,59.66
2022-12-27T19:13:14.920Z,60.29
2022-12-27T19:13:42.159Z,58.19
2022-12-27T19:14:41.982Z,55.95
2022-12-27T19:15:41.103Z,60.83
2022-12-27T19:16:40.981Z,59.95
2022-12-27T19:17:41.398Z,59.69
2022-12-27T19:18:41.410Z,59.56
2022-12-27T19:19:41.038Z,57.54
2022-12-27T19:20:41.013Z,57.50
2022-12-27T19:21:41.059Z,60.18
2022-12-27T19:22:41.031Z,58.00
2022-12-27T19:23:41.088Z,57.93
2022-12-27T19:24:40.938Z,57.35
2022-12-27T19:25:41.006Z,62.42
2022-12-27T19:26:40.897Z,58.29
2022-12-27T19:27:41.070Z,57.12
2022-12-27T19:28:40.905Z,58.41
2022-12-27T19:29:42.810Z,59.59
2022-12-27T19:30:42.087Z,59.87
2022-12-27T19:31:40.903Z,57.50
2022-12-27T19:40:44.090Z,57.29
2022-12-27T19:41:44.097Z,58.10
2022-12-27T19:42:44.258Z,59.04
2022-12-27T19:43:44.277Z,58.39
2022-12-27T19:47:33.008Z,55.72
2022-12-27T19:48:33.271Z,57.55
2022-12-27T19:49:48.197Z,59.05
2022-12-27T19:50:33.866Z,56.69
2022-12-27T19:51:32.875Z,57.21
2022-12-27T19:52:32.850Z,59.65
2022-12-27T19:53:32.936Z,58.52
2022-12-27T19:54:32.785Z,60.22
2022-12-27T19:55:33.173Z,58.37
2022-12-27T19:58:59.974Z,58.22
2022-12-27T19:59:59.928Z,58.61
2022-12-27T20:01:00.409Z,58.70
2022-12-27T20:01:59.913Z,56.01
2022-12-27T20:03:00.050Z,61.79
2022-12-27T20:03:59.782Z,60.70
2022-12-27T20:04:59.827Z,57.21
2022-12-27T20:06:14.643Z,57.72
2022-12-27T20:07:00.713Z,57.33
2022-12-27T20:07:59.752Z,57.77
2022-12-27T20:09:00.920Z,58.42
2022-12-27T20:10:00.876Z,54.96
2022-12-27T20:11:00.921Z,57.46
2022-12-27T20:12:01.159Z,59.00
2022-12-27T20:13:00.862Z,59.55
2022-12-27T20:14:00.904Z,59.90
2022-12-27T20:15:34.661Z,60.95
2022-12-27T20:16:02.884Z,57.82
2022-12-27T20:17:01.721Z,56.36
2022-12-27T20:18:01.438Z,53.13
2022-12-27T20:19:01.424Z,54.89
2022-12-27T20:20:01.311Z,57.41
2022-12-27T20:21:01.921Z,55.13
2022-12-27T20:22:00.938Z,57.50
2022-12-27T20:23:00.857Z,58.79
2022-12-27T20:24:01.802Z,57.04
2022-12-27T20:25:01.587Z,59.72
2022-12-27T20:26:00.726Z,56.68
2022-12-27T20:27:01.114Z,56.65
2022-12-27T20:28:00.886Z,59.34
2022-12-27T20:29:01.177Z,56.07
2022-12-27T20:30:00.798Z,53.44
2022-12-27T20:31:01.253Z,58.29
2022-12-27T20:32:02.860Z,57.66
2022-12-27T20:33:00.946Z,57.84
2022-12-27T20:34:02.118Z,55.17
2022-12-27T20:35:00.861Z,53.32
2022-12-27T20:36:01.092Z,58.42
2022-12-27T20:37:25.145Z,60.30
2022-12-27T20:38:01.817Z,54.23
2022-12-27T20:39:07.707Z,51.55
2022-12-27T20:40:06.865Z,56.95
2022-12-27T20:41:01.546Z,54.38
2022-12-27T20:42:00.738Z,56.52
2022-12-27T20:43:01.737Z,56.11
2022-12-27T20:44:07.000Z,57.70
2022-12-27T20:45:08.091Z,57.93
2022-12-27T20:46:02.185Z,56.74
2022-12-27T20:47:06.303Z,59.18
2022-12-27T20:48:07.314Z,50.77
2022-12-27T20:49:00.632Z,55.73
2022-12-27T20:50:00.513Z,56.09
2022-12-27T20:51:01.483Z,54.05
2022-12-27T20:52:01.070Z,54.90
2022-12-27T20:53:00.787Z,52.26
2022-12-27T20:54:01.590Z,55.42
2022-12-27T20:55:04.865Z,57.58
2022-12-27T20:56:01.705Z,61.14
2022-12-27T20:57:01.695Z,59.29
2022-12-27T20:58:00.645Z,55.63
2022-12-27T20:59:01.697Z,58.18
2022-12-27T21:00:00.591Z,60.19
2022-12-27T21:01:00.556Z,55.85
2022-12-27T21:02:01.064Z,54.27
2022-12-27T21:05:35.930Z,58.08
2022-12-27T21:06:35.743Z,55.49
2022-12-27T21:07:35.810Z,55.09
2022-12-27T21:08:44.582Z,55.00
2022-12-27T21:09:36.921Z,51.31
2022-12-27T21:10:37.231Z,54.94
2022-12-27T21:11:36.824Z,54.29